Time;durP1;ratioP1;P1;durP2;ratioP2;P2;SDS_P1;SDS_P2;PMS_P1;PMS_P2;Temp;Humidity;BMP_temperature;BMP_pressure;BME280_temperature;BME280_humidity;BME280_pressure;Samples;Min_cycle;Max_cycle;Signal;HPM_P1;HPM_P2
2022/12/20 00:01:19;;;;;;;1.45;0.95;;;;;;;8.57;91.28;101353.75;5093780;27;99553;-31
2022/12/20 00:03:44;;;;;;;2.22;0.95;;;;;;;8.60;91.38;101363.53;5075450;27;101040;-31
2022/12/20 00:06:13;;;;;;;1.85;1.23;;;;;;;8.56;91.27;101354.72;5094276;27;96444;-31
2022/12/20 00:08:39;;;;;;;1.33;0.80;;;;;;;8.62;91.55;101350.84;5094381;27;96742;-31
2022/12/20 00:11:06;;;;;;;1.27;0.90;;;;;;;8.61;91.60;101346.41;5094140;27;97311;-30
2022/12/20 00:13:31;;;;;;;2.22;1.08;;;;;;;8.57;91.78;101337.56;5075237;27;100767;-31
2022/12/20 00:16:04;;;;;;;0.77;0.65;;;;;;;8.61;91.67;101357.22;5093514;27;96516;-30
2022/12/20 00:18:29;;;;;;;1.98;1.10;;;;;;;8.58;91.56;101354.63;5075330;27;96868;-31
2022/12/20 00:20:59;;;;;;;6.38;1.15;;;;;;;8.62;91.49;101361.66;5093707;27;97790;-30
2022/12/20 00:23:25;;;;;;;3.83;1.33;;;;;;;8.62;91.88;101369.75;5075178;27;101206;-32
2022/12/20 00:25:50;;;;;;;1.73;1.30;;;;;;;8.60;92.03;101361.72;5093170;27;96733;-30
2022/12/20 00:28:15;;;;;;;1.70;1.13;;;;;;;8.60;91.89;101366.25;5093842;27;97322;-31
2022/12/20 00:30:42;;;;;;;1.92;1.30;;;;;;;8.60;91.89;101364.41;5093406;27;98916;-31
2022/12/20 00:33:07;;;;;;;1.33;0.80;;;;;;;8.58;92.13;101365.44;5094229;27;100188;-32
2022/12/20 00:35:33;;;;;;;2.45;1.20;;;;;;;8.57;92.35;101358.28;5094012;27;96543;-31
2022/12/20 00:37:58;;;;;;;6.88;1.20;;;;;;;8.59;93.02;101357.28;5075042;27;96825;-31
2022/12/20 00:40:23;;;;;;;0.85;0.77;;;;;;;8.59;93.11;101348.31;5092601;27;108934;-32
2022/12/20 00:42:49;;;;;;;1.45;0.85;;;;;;;8.55;93.95;101341.28;5093521;27;97310;-31
2022/12/20 00:45:14;;;;;;;1.55;0.77;;;;;;;8.56;94.56;101326.84;5093239;27;106081;-31
2022/12/20 00:47:39;;;;;;;3.95;1.20;;;;;;;8.59;94.78;101329.41;5092615;27;96763;-31
2022/12/20 00:50:05;;;;;;;1.05;0.70;;;;;;;8.59;95.62;101322.19;5093139;27;111811;-32
2022/12/20 00:52:31;;;;;;;2.00;0.95;;;;;;;8.61;95.78;101339.19;5074553;27;101066;-31
2022/12/20 00:54:56;;;;;;;0.90;0.57;;;;;;;8.61;96.19;101325.69;5093324;27;101831;-31
2022/12/20 00:57:21;;;;;;;1.92;1.17;;;;;;;8.58;97.01;101309.63;5093689;27;96663;-32
2022/12/20 00:59:46;;;;;;;1.50;0.90;;;;;;;8.59;96.83;101313.22;5093278;27;98397;-30
2022/12/20 01:02:12;;;;;;;2.25;1.42;;;;;;;8.62;97.16;101311.22;5093434;27;97324;-32
2022/12/20 01:04:37;;;;;;;4.03;1.30;;;;;;;8.62;97.13;101303.13;5093254;27;96536;-31
2022/12/20 01:07:03;;;;;;;0.93;0.82;;;;;;;8.62;97.79;101296.84;5093457;27;96772;-30
2022/12/20 01:09:28;;;;;;;0.82;0.73;;;;;;;8.64;97.86;101287.72;5074535;27;100663;-31
2022/12/20 01:11:53;;;;;;;3.40;1.00;;;;;;;8.65;97.54;101307.50;5092793;27;99697;-30
2022/12/20 01:14:19;;;;;;;2.42;1.27;;;;;;;8.66;97.58;101314.69;5093123;27;96450;-30
2022/12/20 01:16:46;;;;;;;2.08;1.27;;;;;;;8.68;97.48;101307.38;5093407;27;96765;-31
2022/12/20 01:19:16;;;;;;;1.17;0.93;;;;;;;8.66;98.01;101301.19;5074314;27;100828;-30
2022/12/20 01:21:43;;;;;;;0.98;0.82;;;;;;;8.67;97.96;101286.72;5074722;27;101058;-30
2022/12/20 01:24:13;;;;;;;1.38;0.90;;;;;;;8.68;98.32;101289.34;5073925;27;96678;-31
2022/12/20 01:26:38;;;;;;;1.42;0.77;;;;;;;8.71;98.03;101296.44;5074305;27;96762;-31
2022/12/20 01:29:03;;;;;;;3.75;0.95;;;;;;;8.73;98.20;101291.84;5092225;27;97384;-31
2022/12/20 01:31:29;;;;;;;2.63;1.50;;;;;;;8.76;97.95;101293.50;5093039;27;97755;-33
2022/12/20 01:33:55;;;;;;;1.90;0.95;;;;;;;8.77;97.75;101288.06;5093233;27;96519;-30
2022/12/20 01:36:24;;;;;;;1.23;0.65;;;;;;;8.82;97.73;101288.72;5074296;27;96817;-30
2022/12/20 01:38:49;;;;;;;1.75;1.02;;;;;;;8.82;97.44;101283.31;5074078;27;100955;-31
2022/12/20 01:41:17;;;;;;;0.80;0.60;;;;;;;8.86;97.48;101289.44;5092696;27;97390;-31
2022/12/20 01:43:55;;;;;;;0.98;0.68;;;;;;;8.85;97.55;101282.28;5092818;27;96621;-30
2022/12/20 01:46:26;;;;;;;2.47;0.93;;;;;;;8.85;97.60;101282.28;5074519;27;96630;-30
2022/12/20 01:49:00;;;;;;;1.45;0.85;;;;;;;8.86;97.43;101270.50;5074055;27;101039;-31
2022/12/20 01:51:29;;;;;;;4.47;1.30;;;;;;;8.82;97.47;101280.59;5073826;27;100776;-31
2022/12/20 01:54:01;;;;;;;1.42;0.95;;;;;;;8.84;97.51;101276.00;5073692;27;97140;-30
2022/12/20 01:56:27;;;;;;;1.00;0.82;;;;;;;8.87;97.73;101269.59;5091351;27;96653;-31
2022/12/20 01:58:54;;;;;;;3.00;1.13;;;;;;;8.84;97.86;101257.09;5094183;27;99038;-31
2022/12/20 02:01:22;;;;;;;3.58;1.17;;;;;;;8.88;97.68;101274.91;5077409;27;100923;-31
2022/12/20 02:03:50;;;;;;;2.35;1.08;;;;;;;8.89;97.76;101263.16;5077561;27;96510;-31
2022/12/20 02:06:19;;;;;;;1.20;0.75;;;;;;;8.86;97.70;101271.38;5077420;27;96924;-32
2022/12/20 02:08:47;;;;;;;2.00;1.48;;;;;;;8.88;97.62;101272.19;5077388;27;101472;-31
2022/12/20 02:11:47;;;;;;;1.35;0.80;;;;;;;8.87;97.83;101265.06;5077557;27;100956;-32
2022/12/20 02:14:37;;;;;;;1.08;0.88;;;;;;;8.87;98.01;101258.78;5077495;27;96615;-30
2022/12/20 02:17:34;;;;;;;0.88;0.80;;;;;;;8.90;97.73;101281.09;5077430;27;96721;-31
2022/12/20 02:20:08;;;;;;;0.77;0.63;;;;;;;8.92;97.55;101284.63;5076358;27;101066;-31
2022/12/20 02:22:58;;;;;;;5.05;1.33;;;;;;;8.92;97.83;101281.03;5077238;27;100919;-31
2022/12/20 02:26:01;;;;;;;1.63;0.98;;;;;;;8.89;97.66;101273.06;5095343;27;96696;-31
2022/12/20 02:28:39;;;;;;;0.77;0.60;;;;;;;8.89;97.53;101275.75;5038881;27;96863;-31
2022/12/20 02:31:12;;;;;;;2.35;0.90;;;;;;;8.85;97.60;101263.38;5095669;27;97977;-31
2022/12/20 02:33:41;;;;;;;0.95;0.75;;;;;;;8.85;97.63;101261.53;5077079;27;100920;-32
2022/12/20 02:36:07;;;;;;;0.73;0.70;;;;;;;8.82;97.47;101258.09;5076942;27;96573;-30
2022/12/20 02:38:35;;;;;;;1.95;1.00;;;;;;;8.80;97.43;101252.78;5095801;27;96807;-30
2022/12/20 02:41:31;;;;;;;2.63;1.00;;;;;;;8.79;97.40;101255.53;5076631;27;101415;-34
2022/12/20 02:46:49;;;;;;;0.93;0.60;;;;;;;8.78;97.55;101243.88;5095349;27;96645;-30
2022/12/20 02:49:18;;;;;;;0.52;0.52;;;;;;;8.84;97.38;101242.69;5095582;27;96748;-31
2022/12/20 02:51:47;;;;;;;0.98;0.65;;;;;;;8.85;97.03;101231.81;5076718;27;100762;-30
2022/12/20 02:54:13;;;;;;;1.52;0.88;;;;;;;8.88;97.05;101226.25;5076564;27;101126;-30
2022/12/20 02:56:54;;;;;;;1.65;0.82;;;;;;;8.92;96.85;101230.59;5076637;27;96593;-31
2022/12/20 02:59:32;;;;;;;2.25;1.10;;;;;;;8.93;96.81;101234.16;5076760;27;96888;-31
2022/12/20 03:01:58;;;;;;;3.47;1.40;;;;;;;8.94;96.52;101233.22;5076613;27;101178;-31
2022/12/20 03:04:27;;;;;;;1.33;0.73;;;;;;;8.94;96.44;101214.31;5095366;27;97408;-31
2022/12/20 03:07:05;;;;;;;1.08;0.77;;;;;;;8.92;96.63;101235.97;5095300;27;96576;-30
2022/12/20 03:09:33;;;;;;;0.40;0.40;;;;;;;8.96;96.30;101231.28;5075784;27;96936;-30
2022/12/20 03:11:58;;;;;;;1.70;0.85;;;;;;;8.97;96.18;101226.78;5094265;27;97980;-30
2022/12/20 03:14:25;;;;;;;0.93;0.75;;;;;;;9.01;96.27;101228.38;5076225;27;100714;-31
2022/12/20 03:16:50;;;;;;;0.80;0.60;;;;;;;9.03;96.05;101226.47;5076236;27;96536;-31
2022/12/20 03:19:15;;;;;;;1.15;0.80;;;;;;;9.08;95.93;101229.81;5094710;27;96707;-31
2022/12/20 03:21:41;;;;;;;2.92;0.88;;;;;;;9.06;95.54;101229.03;5094430;27;108230;-30
2022/12/20 03:24:07;;;;;;;1.60;1.13;;;;;;;9.08;95.73;101235.22;5094199;27;99469;-30
2022/12/20 03:26:32;;;;;;;1.35;0.70;;;;;;;9.08;95.50;101219.00;5094884;27;96580;-30
2022/12/20 03:28:57;;;;;;;1.55;1.00;;;;;;;9.15;95.65;101223.16;5095153;27;96821;-30
2022/12/20 03:31:23;;;;;;;1.08;0.73;;;;;;;9.13;95.22;101225.97;5075556;27;110729;-31
2022/12/20 03:33:48;;;;;;;1.35;0.90;;;;;;;9.18;95.40;101224.88;5094521;27;97803;-31
2022/12/20 03:36:14;;;;;;;1.80;0.80;;;;;;;9.20;95.20;101231.03;5094257;27;96439;-31
2022/12/20 03:38:39;;;;;;;2.40;1.23;;;;;;;9.20;95.04;101218.44;5094604;27;96711;-30
2022/12/20 03:41:04;;;;;;;1.00;0.85;;;;;;;9.22;95.01;101221.03;5094233;27;100135;-31
2022/12/20 03:43:30;;;;;;;2.67;1.10;;;;;;;9.21;95.03;101214.75;5094550;27;97392;-30
2022/12/20 03:45:55;;;;;;;1.52;1.05;;;;;;;9.21;95.04;101232.81;5094416;27;101514;-32
2022/12/20 03:48:20;;;;;;;1.92;1.10;;;;;;;9.21;95.31;101230.09;5094427;27;96930;-31
2022/12/20 03:50:46;;;;;;;1.10;0.73;;;;;;;9.19;95.45;101227.47;5094382;27;97424;-31
2022/12/20 03:53:11;;;;;;;1.55;0.90;;;;;;;9.22;95.29;101235.41;5094565;27;100998;-31
2022/12/20 03:55:36;;;;;;;1.10;0.90;;;;;;;9.26;95.47;101234.31;5093838;27;110288;-31
2022/12/20 03:58:02;;;;;;;0.85;0.65;;;;;;;9.26;95.76;101230.75;5094413;27;96822;-31
2022/12/20 04:00:27;;;;;;;1.70;0.90;;;;;;;9.31;95.80;101228.69;5093817;27;97881;-31
2022/12/20 04:02:52;;;;;;;1.73;0.80;;;;;;;9.33;95.77;101229.50;5094164;27;97823;-31
2022/12/20 04:05:18;;;;;;;2.13;1.30;;;;;;;9.35;95.75;101227.59;5094233;27;96625;-31
2022/12/20 04:07:44;;;;;;;1.52;0.80;;;;;;;9.35;96.02;101222.19;5094242;27;96834;-31
2022/12/20 04:10:10;;;;;;;2.95;1.02;;;;;;;9.39;96.22;101218.38;5093975;27;97921;-31
2022/12/20 04:12:36;;;;;;;2.95;0.98;;;;;;;9.41;96.74;101223.69;5075457;27;100729;-31
2022/12/20 04:15:02;;;;;;;1.08;0.80;;;;;;;9.43;96.78;101214.53;5058660;27;96676;-31
2022/12/20 04:17:27;;;;;;;4.05;1.17;;;;;;;9.44;96.53;101210.00;5094360;27;96749;-31
2022/12/20 04:19:52;;;;;;;1.45;1.02;;;;;;;9.45;96.98;101215.34;5093632;27;102436;-30
2022/12/20 04:22:17;;;;;;;2.70;1.42;;;;;;;9.49;97.94;101214.25;5094014;27;98216;-30
2022/12/20 04:24:43;;;;;;;1.95;1.08;;;;;;;9.45;98.19;101206.38;5092867;27;96714;-32
2022/12/20 04:27:08;;;;;;;3.92;0.70;;;;;;;9.46;99.14;101216.22;5094031;27;96881;-31
2022/12/20 04:29:33;;;;;;;2.17;1.20;;;;;;;9.46;98.71;101214.41;5093541;27;97952;-31
2022/12/20 04:31:59;;;;;;;1.95;1.00;;;;;;;9.43;99.36;101213.66;5093666;27;97816;-31
2022/12/20 04:34:24;;;;;;;1.23;1.05;;;;;;;9.41;99.88;101221.84;5094018;27;96563;-31
2022/12/20 04:36:50;;;;;;;2.08;0.90;;;;;;;9.41;100.00;101210.16;5093867;27;96756;-31
2022/12/20 04:39:15;;;;;;;2.47;1.42;;;;;;;9.43;100.00;101208.25;5093391;27;99398;-30
2022/12/20 04:41:40;;;;;;;3.00;1.48;;;;;;;9.42;100.00;101203.81;5093924;27;97777;-31
2022/12/20 04:44:06;;;;;;;2.55;1.15;;;;;;;9.38;100.00;101192.28;5093559;27;96701;-30
2022/12/20 04:46:32;;;;;;;1.25;0.63;;;;;;;9.37;100.00;101190.53;5093840;27;96797;-31
2022/12/20 04:48:57;;;;;;;1.63;1.08;;;;;;;9.38;100.00;101184.16;5074184;27;100862;-31
2022/12/20 04:51:22;;;;;;;4.30;1.30;;;;;;;9.40;100.00;101184.09;5092897;27;106175;-31
2022/12/20 04:53:47;;;;;;;1.65;0.95;;;;;;;9.33;100.00;101170.88;5093304;27;96541;-31
2022/12/20 04:56:21;;;;;;;2.83;1.08;;;;;;;9.38;100.00;101172.47;5093296;27;96793;-31
2022/12/20 04:58:49;;;;;;;1.27;0.88;;;;;;;9.36;100.00;101168.00;5093353;27;99439;-30
2022/12/20 05:01:15;;;;;;;1.85;1.30;;;;;;;9.38;100.00;101157.13;5074718;27;100913;-31
2022/12/20 05:03:41;;;;;;;2.00;1.25;;;;;;;9.38;100.00;101156.25;5093344;27;96538;-30
2022/12/20 05:06:07;;;;;;;2.08;1.27;;;;;;;9.44;100.00;101155.94;5093567;27;96822;-31
2022/12/20 05:08:32;;;;;;;1.60;1.08;;;;;;;9.44;100.00;101145.09;5074598;27;101355;-30
2022/12/20 05:10:58;;;;;;;6.30;1.60;;;;;;;9.46;100.00;101141.41;5093268;27;97813;-31
2022/12/20 05:13:23;;;;;;;1.30;0.93;;;;;;;9.48;100.00;101127.78;5092796;27;96606;-31
2022/12/20 05:15:53;;;;;;;0.73;0.63;;;;;;;9.50;100.00;101131.28;5093120;27;96841;-31
2022/12/20 05:18:19;;;;;;;0.68;0.60;;;;;;;9.51;100.00;101122.19;5074500;27;99802;-31
2022/12/20 05:20:44;;;;;;;2.15;1.05;;;;;;;9.55;100.00;101124.66;5074094;27;100935;-31
2022/12/20 05:28:38;;;;;;;2.67;1.23;;;;;;;9.64;100.00;101123.31;5092942;27;97146;-31
2022/12/20 05:31:04;;;;;;;1.58;0.73;;;;;;;9.67;100.00;101133.09;5093234;27;99193;-31
2022/12/20 05:33:29;;;;;;;3.38;1.40;;;;;;;9.69;99.50;101121.22;5094158;27;96701;-31
2022/12/20 05:35:55;;;;;;;1.52;0.70;;;;;;;9.68;99.11;101116.78;5096713;27;97587;-31
2022/12/20 05:38:21;;;;;;;1.63;1.10;;;;;;;9.71;99.00;101132.84;5096110;27;98022;-30
2022/12/20 05:40:48;;;;;;;0.73;0.60;;;;;;;9.74;98.48;101129.09;5077655;27;100841;-31
2022/12/20 05:43:14;;;;;;;0.95;0.75;;;;;;;9.76;98.39;101119.94;5077963;27;96858;-30
2022/12/20 05:45:43;;;;;;;3.63;1.15;;;;;;;9.77;98.23;101135.25;5096736;27;96722;-31
2022/12/20 05:48:09;;;;;;;2.30;1.17;;;;;;;9.77;97.77;101116.31;5096059;27;97968;-31
2022/12/20 05:50:34;;;;;;;1.85;0.98;;;;;;;9.79;97.35;101106.25;5077348;27;105117;-30
2022/12/20 05:52:59;;;;;;;1.23;0.77;;;;;;;9.78;97.15;101104.50;5096369;27;96635;-32
2022/12/20 05:55:25;;;;;;;1.73;1.10;;;;;;;9.79;96.62;101100.84;5096485;27;97696;-31
2022/12/20 05:57:50;;;;;;;2.05;1.30;;;;;;;9.83;96.18;101108.81;5095918;27;105847;-31
2022/12/20 06:00:16;;;;;;;1.33;0.77;;;;;;;9.83;96.05;101112.38;5096324;27;97348;-31
2022/12/20 06:02:41;;;;;;;2.72;1.10;;;;;;;9.84;95.70;101105.13;5095876;27;96542;-30
2022/12/20 06:05:07;;;;;;;1.85;1.05;;;;;;;9.86;95.36;101119.44;5096413;27;96820;-32
2022/12/20 06:07:32;;;;;;;1.60;1.15;;;;;;;9.87;95.35;101113.09;5096174;27;97358;-31
2022/12/20 06:09:58;;;;;;;1.17;0.93;;;;;;;9.85;95.43;101086.13;5095511;27;99307;-31
2022/12/20 06:12:23;;;;;;;1.42;0.68;;;;;;;9.88;95.25;101099.47;5096290;27;96527;-30
2022/12/20 06:14:50;;;;;;;3.80;1.20;;;;;;;9.89;94.77;101092.22;5077446;27;96797;-31
2022/12/20 06:17:15;;;;;;;1.88;0.95;;;;;;;9.88;94.65;101101.31;5077224;27;100772;-31
2022/12/20 06:19:41;;;;;;;3.70;0.70;;;;;;;9.89;94.37;101097.63;5095737;27;99278;-31
2022/12/20 06:22:07;;;;;;;1.35;0.82;;;;;;;9.89;94.56;101097.63;5096123;27;96527;-30
2022/12/20 06:24:34;;;;;;;2.88;1.13;;;;;;;9.85;94.57;101085.25;5076272;27;96872;-31
2022/12/20 06:26:59;;;;;;;1.15;0.85;;;;;;;9.84;94.32;101097.88;5076606;27;100899;-31
2022/12/20 06:29:25;;;;;;;0.95;0.82;;;;;;;9.83;94.12;101089.88;5095605;27;97788;-31
2022/12/20 06:31:50;;;;;;;1.98;1.20;;;;;;;9.84;94.20;101103.28;5095483;27;96658;-31
2022/12/20 06:34:16;;;;;;;0.55;0.50;;;;;;;9.84;94.15;101110.53;5095772;27;96875;-32
2022/12/20 06:36:41;;;;;;;1.77;1.10;;;;;;;9.83;94.23;101112.38;5095556;27;98118;-31
2022/12/20 06:39:08;;;;;;;2.05;1.08;;;;;;;9.82;93.39;101113.34;5095407;27;97828;-32
2022/12/20 06:41:34;;;;;;;1.17;0.85;;;;;;;9.83;94.26;101111.50;5095382;27;96782;-30
2022/12/20 06:43:59;;;;;;;2.17;0.98;;;;;;;9.86;93.81;101111.34;5095673;27;96708;-32
2022/12/20 06:46:26;;;;;;;1.05;0.77;;;;;;;9.83;93.13;101100.69;5094408;27;97833;-31
2022/12/20 06:48:52;;;;;;;0.77;0.65;;;;;;;9.85;92.93;101096.06;5076739;27;101046;-31
2022/12/20 06:51:18;;;;;;;9.18;1.15;;;;;;;9.87;93.50;101105.00;5094865;27;96668;-31
2022/12/20 06:53:43;;;;;;;1.38;0.90;;;;;;;9.90;92.73;101105.69;5076796;27;96984;-32
2022/12/20 06:56:08;;;;;;;1.35;0.98;;;;;;;9.93;92.76;101102.78;5095383;27;98080;-31
2022/12/20 06:58:34;;;;;;;1.75;0.88;;;;;;;9.91;92.34;101114.66;5094876;27;98722;-31
2022/12/20 07:00:59;;;;;;;0.75;0.50;;;;;;;9.90;92.15;101107.50;5095158;27;96618;-32
2022/12/20 07:03:25;;;;;;;1.75;0.90;;;;;;;9.91;92.32;101114.66;5095422;27;96490;-31
2022/12/20 07:05:54;;;;;;;1.13;0.75;;;;;;;9.93;92.17;101110.03;5095242;27;97870;-31
2022/12/20 07:08:21;;;;;;;2.22;1.15;;;;;;;9.90;92.43;101124.63;5076545;27;100936;-31
2022/12/20 07:10:46;;;;;;;3.92;1.00;;;;;;;9.90;93.01;101121.03;5076382;27;96986;-31
2022/12/20 07:13:12;;;;;;;0.93;0.50;;;;;;;9.90;92.35;101119.22;5095211;27;96652;-31
2022/12/20 07:15:37;;;;;;;1.80;1.20;;;;;;;9.88;92.95;101120.25;5094407;27;97707;-30
2022/12/20 07:18:03;;;;;;;2.85;0.80;;;;;;;9.89;92.56;101127.41;5094977;27;97795;-31
2022/12/20 07:20:29;;;;;;;8.00;1.13;;;;;;;9.89;92.72;101120.19;5094858;27;96835;-30
2022/12/20 07:22:54;;;;;;;1.25;1.05;;;;;;;9.87;92.81;101118.50;5094876;27;96869;-31
2022/12/20 07:25:20;;;;;;;0.63;0.55;;;;;;;9.83;93.15;101125.03;5094424;27;97312;-31
2022/12/20 07:27:48;;;;;;;1.70;0.90;;;;;;;9.84;93.01;101124.94;5094757;27;97256;-31
2022/12/20 07:30:14;;;;;;;1.15;0.95;;;;;;;9.83;93.04;101130.44;5076196;27;96972;-31
2022/12/20 07:32:39;;;;;;;1.27;0.77;;;;;;;9.80;93.29;101131.50;5076765;27;96956;-31
2022/12/20 07:35:05;;;;;;;1.48;0.90;;;;;;;9.79;93.42;101125.19;5094669;27;97854;-31
2022/12/20 07:37:31;;;;;;;1.33;0.95;;;;;;;9.77;93.53;101124.41;5094396;27;97800;-31
2022/12/20 07:39:56;;;;;;;0.65;0.65;;;;;;;9.76;93.58;101117.25;5094410;27;96649;-31
2022/12/20 07:42:22;;;;;;;2.05;1.10;;;;;;;9.75;93.83;101126.31;5094639;27;96703;-31
2022/12/20 07:44:47;;;;;;;1.50;0.93;;;;;;;9.77;93.87;101123.53;5094433;27;98975;-31
2022/12/20 07:47:12;;;;;;;1.23;0.80;;;;;;;9.74;94.30;101127.25;5094527;27;97739;-32
2022/12/20 07:49:38;;;;;;;4.63;0.90;;;;;;;9.70;94.80;101124.81;5094493;27;96596;-31
2022/12/20 07:52:05;;;;;;;1.38;0.75;;;;;;;9.69;95.06;101129.34;5094315;27;96805;-30
2022/12/20 07:54:41;;;;;;;0.82;0.75;;;;;;;9.64;95.17;101127.84;5075783;27;101123;-32
2022/12/20 07:57:14;;;;;;;0.63;0.55;;;;;;;9.62;95.69;101118.94;5094569;27;97877;-30
2022/12/20 07:59:44;;;;;;;2.05;1.10;;;;;;;9.58;95.76;101115.50;5094735;27;96786;-31
2022/12/20 08:02:16;;;;;;;5.78;1.02;;;;;;;9.59;95.93;101133.50;5094102;27;96690;-31
2022/12/20 08:04:42;;;;;;;1.38;0.98;;;;;;;9.55;96.07;101138.19;5075112;27;101221;-31
2022/12/20 08:07:09;;;;;;;4.32;0.90;;;;;;;9.52;96.14;101124.84;5075350;27;101211;-31
2022/12/20 08:09:39;;;;;;;2.58;0.82;;;;;;;9.53;96.12;101131.09;5075807;27;96548;-31
2022/12/20 08:12:07;;;;;;;1.35;0.93;;;;;;;9.51;96.02;101120.41;5075604;27;97534;-32
2022/12/20 08:14:33;;;;;;;2.10;0.75;;;;;;;9.55;95.89;101118.38;5075300;27;101053;-31
2022/12/20 08:16:59;;;;;;;1.33;0.88;;;;;;;9.59;95.49;101121.81;5093931;27;97890;-31
2022/12/20 08:19:24;;;;;;;2.92;1.10;;;;;;;9.59;95.38;101114.56;5093893;27;96664;-31
2022/12/20 08:21:50;;;;;;;0.68;0.60;;;;;;;9.59;95.24;101122.69;5094372;27;96807;-31
2022/12/20 08:24:15;;;;;;;1.08;0.60;;;;;;;9.60;95.18;101119.00;5093567;27;99427;-31
2022/12/20 08:26:40;;;;;;;2.00;1.02;;;;;;;9.66;94.62;101116.00;5093433;27;97608;-31
2022/12/20 08:29:07;;;;;;;2.05;0.82;;;;;;;9.69;94.46;101110.41;5093542;27;96562;-31
2022/12/20 08:31:36;;;;;;;2.65;1.00;;;;;;;9.68;94.48;101108.69;5075150;27;96775;-31
2022/12/20 08:34:01;;;;;;;1.50;0.70;;;;;;;9.69;94.82;101115.81;5093651;27;97897;-31
2022/12/20 08:36:26;;;;;;;0.60;0.57;;;;;;;9.65;95.38;101122.34;5093765;27;97755;-32
2022/12/20 08:38:52;;;;;;;2.30;1.10;;;;;;;9.57;95.91;101117.34;5093901;27;96565;-30
2022/12/20 08:41:17;;;;;;;1.45;0.80;;;;;;;9.57;96.25;101125.47;5093882;27;96724;-30
2022/12/20 08:43:42;;;;;;;1.25;0.90;;;;;;;9.55;96.72;101121.09;5093706;27;97888;-31
2022/12/20 08:46:09;;;;;;;0.75;0.68;;;;;;;9.52;97.19;101122.13;5093635;27;97726;-31
2022/12/20 08:48:35;;;;;;;3.47;1.50;;;;;;;9.50;97.30;101123.16;5093329;27;96494;-30
2022/12/20 08:51:03;;;;;;;2.05;1.00;;;;;;;9.47;97.79;101126.03;5093741;27;97210;-31
2022/12/20 08:53:30;;;;;;;9.68;1.15;;;;;;;9.45;98.18;101130.66;5073894;27;101171;-31
2022/12/20 08:56:11;;;;;;;0.85;0.47;;;;;;;9.41;99.26;101121.81;5074561;27;100890;-31
2022/12/20 08:58:37;;;;;;;1.05;0.60;;;;;;;9.41;99.27;101129.94;5072799;27;97208;-30
2022/12/20 09:01:05;;;;;;;1.73;0.98;;;;;;;9.38;99.21;101119.28;5072336;27;97201;-31
2022/12/20 09:03:31;;;;;;;3.58;1.00;;;;;;;9.35;99.28;101122.16;5073093;27;100912;-32
2022/12/20 09:05:58;;;;;;;1.02;0.77;;;;;;;9.36;99.58;101124.75;5074158;27;101265;-30
2022/12/20 09:08:24;;;;;;;2.67;0.80;;;;;;;9.34;100.00;101132.09;5075471;27;96801;-30
2022/12/20 09:10:50;;;;;;;1.48;0.80;;;;;;;9.33;100.00;101134.88;5078344;27;96709;-31
2022/12/20 09:13:15;;;;;;;1.90;1.00;;;;;;;9.30;100.00;101135.03;5077974;27;101305;-31
2022/12/20 09:15:41;;;;;;;1.60;0.93;;;;;;;9.28;100.00;101140.50;5096696;27;97816;-32
2022/12/20 09:18:07;;;;;;;2.58;1.20;;;;;;;9.26;100.00;101137.00;5093776;27;96689;-33
2022/12/20 09:20:32;;;;;;;1.23;0.88;;;;;;;9.25;100.00;101132.56;5094344;27;97091;-30
2022/12/20 09:22:58;;;;;;;2.28;1.02;;;;;;;9.23;100.00;101141.72;5094047;27;99466;-30
2022/12/20 09:25:25;;;;;;;2.10;1.02;;;;;;;9.22;100.00;101130.00;5071314;27;100914;-30
2022/12/20 09:27:51;;;;;;;1.70;1.05;;;;;;;9.25;100.00;101139.81;5071813;27;97182;-31
2022/12/20 09:30:17;;;;;;;1.45;0.73;;;;;;;9.25;100.00;101132.56;5073576;27;97327;-32
2022/12/20 09:32:42;;;;;;;1.08;0.82;;;;;;;9.24;100.00;101138.03;5075555;27;98000;-30
2022/12/20 09:35:08;;;;;;;0.60;0.38;;;;;;;9.23;100.00;101137.19;5076783;27;97036;-32
2022/12/20 09:37:33;;;;;;;1.20;0.80;;;;;;;9.26;100.00;101137.00;5076222;27;96549;-30
2022/12/20 09:39:58;;;;;;;1.27;0.52;;;;;;;9.26;100.00;101128.03;5076040;27;96774;-30
2022/12/20 09:42:27;;;;;;;1.83;0.98;;;;;;;9.28;100.00;101135.09;5075085;27;99186;-30
2022/12/20 09:45:07;;;;;;;1.15;0.70;;;;;;;9.26;100.00;101137.00;5074250;27;101300;-30
2022/12/20 09:47:36;;;;;;;2.80;0.82;;;;;;;9.29;100.00;101133.28;5074286;27;96638;-31
2022/12/20 09:50:05;;;;;;;1.38;0.80;;;;;;;9.31;100.00;101134.06;5074346;27;96828;-32
2022/12/20 09:53:01;;;;;;;3.03;0.85;;;;;;;9.33;100.00;101130.31;5074267;27;101118;-30
2022/12/20 09:55:47;;;;;;;0.75;0.70;;;;;;;9.34;100.00;101132.09;5075453;27;98766;-30
2022/12/20 09:58:21;;;;;;;0.80;0.52;;;;;;;9.36;100.00;101134.69;5075887;27;96591;-30
2022/12/20 10:00:49;;;;;;;1.75;1.10;;;;;;;9.33;100.00;101134.88;5076159;27;96540;-31
2022/12/20 10:03:41;;;;;;;1.75;1.00;;;;;;;9.31;100.00;101136.78;5073847;27;101148;-30
2022/12/20 10:06:25;;;;;;;1.63;1.10;;;;;;;9.34;100.00;101139.31;5072143;27;99015;-30
2022/12/20 10:09:28;;;;;;;1.38;1.02;;;;;;;9.33;100.00;101122.22;5075064;27;96590;-30
2022/12/20 10:12:02;;;;;;;1.52;0.82;;;;;;;9.34;100.00;101128.50;5075681;27;96825;-31
2022/12/20 10:14:50;;;;;;;2.65;0.85;;;;;;;9.34;100.00;101126.69;5073878;27;100852;-31
2022/12/20 10:17:27;;;;;;;1.88;1.05;;;;;;;9.36;100.00;101140.09;5073847;27;100891;-31
2022/12/20 10:19:53;;;;;;;1.33;1.00;;;;;;;9.36;100.00;101127.47;5073552;27;97009;-30
2022/12/20 10:22:28;;;;;;;1.35;0.77;;;;;;;9.37;100.00;101125.66;5075459;27;96745;-30
2022/12/20 10:25:19;;;;;;;1.45;0.90;;;;;;;9.38;100.00;101119.28;5073277;27;101182;-30
2022/12/20 10:27:46;;;;;;;2.33;1.15;;;;;;;9.39;100.00;101122.84;5075323;27;97780;-31
2022/12/20 10:30:17;;;;;;;2.80;0.85;;;;;;;9.39;100.00;101133.66;5073578;27;96835;-30
2022/12/20 10:32:48;;;;;;;1.45;0.82;;;;;;;9.36;100.00;101121.19;5073750;27;96900;-32
2022/12/20 10:35:14;;;;;;;2.10;1.00;;;;;;;9.39;100.00;101123.75;5073153;27;101660;-30
2022/12/20 10:37:56;;;;;;;4.05;1.08;;;;;;;9.36;100.00;101118.47;5074889;27;97810;-30
2022/12/20 10:40:29;;;;;;;0.90;0.47;;;;;;;9.41;100.00;101113.69;5073580;27;97696;-30
2022/12/20 10:42:55;;;;;;;1.80;1.10;;;;;;;9.38;100.00;101107.59;5073472;27;96767;-30
2022/12/20 10:45:20;;;;;;;0.70;0.45;;;;;;;9.41;100.00;101121.81;5074835;27;97995;-30
2022/12/20 10:47:50;;;;;;;1.45;0.82;;;;;;;9.40;100.00;101113.81;5074633;27;97882;-31
2022/12/20 10:50:21;;;;;;;1.08;0.93;;;;;;;9.42;100.00;101120.88;5074695;27;96654;-30
2022/12/20 10:53:09;;;;;;;0.90;0.57;;;;;;;9.40;100.00;101121.91;5073764;27;97310;-30
2022/12/20 10:55:41;;;;;;;0.95;0.75;;;;;;;9.41;100.00;101120.94;5074737;27;97475;-30
2022/12/20 10:58:25;;;;;;;;;;;;;;;9.40;100.00;101117.38;5075347;27;97362;-30
2022/12/20 11:00:50;;;;;;;1.27;0.70;;;;;;;9.39;100.00;101110.22;5074280;27;96503;-30
2022/12/20 11:03:21;;;;;;;1.60;1.02;;;;;;;9.40;100.00;101114.66;5074726;27;96803;-30
2022/12/20 11:05:58;;;;;;;2.58;0.90;;;;;;;9.42;100.00;101109.19;5074550;27;97913;-30
2022/12/20 11:08:26;;;;;;;0.77;0.73;;;;;;;9.43;100.00;101106.38;5074717;27;98245;-30
2022/12/20 11:11:15;;;;;;;0.45;0.45;;;;;;;9.45;100.00;101104.47;5073302;27;96661;-30
2022/12/20 11:13:41;;;;;;;1.20;0.88;;;;;;;9.44;100.00;101102.75;5073373;27;96563;-31
2022/12/20 11:16:23;;;;;;;1.63;1.10;;;;;;;9.46;100.00;101119.78;5072902;27;101622;-31
2022/12/20 11:18:59;;;;;;;1.25;0.85;;;;;;;9.44;100.00;101108.16;5073100;27;101503;-30
2022/12/20 11:21:42;;;;;;;2.78;1.45;;;;;;;9.48;100.00;101111.56;5072864;27;97801;-30
2022/12/20 11:24:13;;;;;;;1.45;0.93;;;;;;;9.45;100.00;101103.63;5072951;27;96725;-30
2022/12/20 11:27:03;;;;;;;2.60;1.42;;;;;;;9.46;100.00;101106.25;5072291;27;101073;-31
2022/12/20 11:29:59;;;;;;;1.33;1.00;;;;;;;9.45;100.00;101103.63;5073905;27;98803;-30
2022/12/20 11:32:55;;;;;;;1.35;0.73;;;;;;;9.43;100.00;101098.28;5073806;27;96546;-30
2022/12/20 11:35:53;;;;;;;1.23;0.88;;;;;;;9.47;100.00;101102.56;5072966;27;96747;-30
2022/12/20 11:38:37;;;;;;;0.57;0.50;;;;;;;9.45;100.00;101092.81;5060069;27;97926;-30
2022/12/20 11:41:44;;;;;;;1.77;1.10;;;;;;;9.48;100.00;101092.63;5072420;27;100960;-30
2022/12/20 11:44:35;;;;;;;1.40;1.00;;;;;;;9.50;100.00;101090.72;5049839;27;96573;-30
2022/12/20 11:47:03;;;;;;;1.45;0.85;;;;;;;9.50;100.00;101091.59;5072886;27;96739;-30